createdAt,value
2018-08-13T00:01:24.912Z,47.18
2018-08-13T00:03:51.525Z,48.96
2018-08-13T00:06:18.412Z,49.54
2018-08-13T00:08:46.572Z,49.37
2018-08-13T00:11:13.052Z,48.11
2018-08-13T00:13:40.495Z,46.80
2018-08-13T00:16:07.463Z,46.16
2018-08-13T00:18:33.953Z,46.14
2018-08-13T00:21:00.426Z,47.95
2018-08-13T00:23:26.919Z,47.28
2018-08-13T00:25:54.874Z,46.71
2018-08-13T00:28:21.329Z,46.48
2018-08-13T00:30:47.809Z,48.63
2018-08-13T00:33:14.301Z,49.71
2018-08-13T00:35:41.150Z,49.18
2018-08-13T00:38:07.666Z,49.70
2018-08-13T00:40:34.154Z,49.42
2018-08-13T00:43:01.180Z,49.61
2018-08-13T00:45:30.060Z,51.96
2018-08-13T00:47:56.568Z,53.82
2018-08-13T00:50:23.081Z,54.66
2018-08-13T00:52:49.566Z,54.62
2018-08-13T00:55:16.414Z,54.99
2018-08-13T00:57:42.894Z,54.32
2018-08-13T01:00:09.376Z,53.84
2018-08-13T01:02:36.308Z,53.13
2018-08-13T01:05:02.788Z,51.58
2018-08-13T01:07:29.301Z,52.49
2018-08-13T01:09:55.783Z,53.12
2018-08-13T01:12:22.649Z,53.11
2018-08-13T01:14:49.140Z,52.81
2018-08-13T01:17:16.253Z,52.67
2018-08-13T01:19:43.622Z,52.97
2018-08-13T01:24:42.516Z,53.33
2018-08-13T01:27:10.274Z,53.87
2018-08-13T01:29:36.827Z,54.26
2018-08-13T01:32:03.478Z,54.18
2018-08-13T01:34:30.085Z,54.31
2018-08-13T01:36:57.114Z,53.87
2018-08-13T01:39:24.965Z,53.80
2018-08-13T01:41:51.489Z,53.45
2018-08-13T01:44:19.111Z,53.26
2018-08-13T01:46:45.647Z,52.82
2018-08-13T01:49:12.529Z,52.63
2018-08-13T01:51:39.849Z,52.51
2018-08-13T01:54:08.341Z,50.86
2018-08-13T01:56:36.268Z,51.37
2018-08-13T01:59:02.762Z,51.91
2018-08-13T02:01:29.258Z,52.49
2018-08-13T02:03:55.794Z,52.85
2018-08-13T02:06:23.727Z,53.92
2018-08-13T02:08:50.899Z,54.68
2018-08-13T02:11:17.391Z,55.27
2018-08-13T02:13:45.087Z,55.17
2018-08-13T02:16:11.905Z,55.49
2018-08-13T02:18:39.303Z,54.83
2018-08-13T02:21:05.798Z,55.35
2018-08-13T02:23:32.282Z,55.69
2018-08-13T02:25:59.566Z,55.54
2018-08-13T02:28:26.068Z,55.63
2018-08-13T02:30:52.772Z,55.59
2018-08-13T02:33:19.685Z,54.83
2018-08-13T02:35:46.175Z,55.17
2018-08-13T02:38:12.701Z,55.04
2018-08-13T02:40:39.218Z,54.16
2018-08-13T02:43:06.045Z,54.19
2018-08-13T02:45:32.994Z,54.72
2018-08-13T02:47:59.453Z,55.17
2018-08-13T02:50:26.347Z,55.85
2018-08-13T02:52:52.831Z,56.07
2018-08-13T02:55:19.336Z,56.37
2018-08-13T02:57:47.384Z,55.80
2018-08-13T03:00:15.286Z,55.95
2018-08-13T03:02:42.027Z,55.06
2018-08-13T03:05:08.504Z,55.43
2018-08-13T03:07:35.811Z,54.74
2018-08-13T03:10:02.815Z,54.47
2018-08-13T03:12:29.328Z,54.84
2018-08-13T03:14:55.785Z,54.62
2018-08-13T03:17:22.294Z,55.06
2018-08-13T03:19:49.288Z,54.44
2018-08-13T03:22:16.909Z,54.51
2018-08-13T03:24:43.354Z,53.38
2018-08-13T03:27:10.454Z,51.50
2018-08-13T03:29:37.363Z,51.61
2018-08-13T03:32:03.999Z,51.28
2018-08-13T03:34:31.936Z,52.57
2018-08-13T03:36:58.873Z,53.64
2018-08-13T03:39:26.819Z,54.35
2018-08-13T03:41:55.186Z,54.50
2018-08-13T03:44:21.912Z,53.98
2018-08-13T03:46:48.489Z,53.99
2018-08-13T03:49:15.344Z,53.84
2018-08-13T03:51:42.091Z,53.93
2018-08-13T03:54:08.649Z,53.54
2018-08-13T03:56:35.723Z,53.31
2018-08-13T03:59:02.322Z,53.23
2018-08-13T04:01:29.532Z,53.37
2018-08-13T04:03:56.617Z,53.27
2018-08-13T04:06:23.236Z,52.30
2018-08-13T04:08:49.744Z,51.56
2018-08-13T04:11:17.342Z,51.36
2018-08-13T04:13:44.322Z,51.53
2018-08-13T04:16:10.793Z,52.58
2018-08-13T04:18:38.026Z,52.96
2018-08-13T04:21:05.606Z,53.59
2018-08-13T04:23:32.910Z,52.49
2018-08-13T04:25:59.377Z,52.68
2018-08-13T04:28:26.200Z,53.05
2018-08-13T04:30:52.692Z,53.88
2018-08-13T04:33:19.181Z,53.98
2018-08-13T04:35:46.097Z,54.96
2018-08-13T04:38:12.621Z,55.57
2018-08-13T04:40:39.129Z,54.58
2018-08-13T04:43:06.146Z,53.67
2018-08-13T04:45:32.646Z,52.72
2018-08-13T04:47:59.127Z,53.41
2018-08-13T04:50:26.023Z,52.24
2018-08-13T04:52:52.501Z,49.92
2018-08-13T04:55:19.501Z,48.58
2018-08-13T04:57:46.445Z,49.20
2018-08-13T05:00:12.919Z,49.92
2018-08-13T05:02:39.385Z,49.03
2018-08-13T05:05:06.336Z,47.58
2018-08-13T05:07:32.897Z,48.04
2018-08-13T05:09:59.408Z,47.84
2018-08-13T05:12:26.241Z,46.93
2018-08-13T05:14:52.729Z,45.74
2018-08-13T05:17:19.213Z,44.84
2018-08-13T05:19:46.158Z,44.37
2018-08-13T05:22:12.679Z,44.44
2018-08-13T05:24:39.172Z,44.35
2018-08-13T05:27:06.099Z,43.69
2018-08-13T05:29:32.582Z,43.97
2018-08-13T05:32:00.717Z,44.26
2018-08-13T05:34:27.644Z,44.70
2018-08-13T05:36:54.431Z,45.22
2018-08-13T05:39:20.897Z,46.33
2018-08-13T05:41:49.276Z,46.01
2018-08-13T05:44:15.774Z,46.39
2018-08-13T05:46:42.838Z,46.48
2018-08-13T05:49:11.590Z,46.91
2018-08-13T05:51:38.054Z,47.65
2018-08-13T05:54:04.593Z,48.20
2018-08-13T05:56:31.494Z,49.33
2018-08-13T05:58:59.026Z,49.15
2018-08-13T06:01:26.047Z,50.03
2018-08-13T06:03:53.460Z,50.47
2018-08-13T06:06:20.450Z,51.44
2018-08-13T06:08:48.012Z,51.58
2018-08-13T06:11:15.131Z,52.07
2018-08-13T06:13:41.619Z,53.56
2018-08-13T06:16:08.405Z,54.82
2018-08-13T06:18:34.936Z,56.97
2018-08-13T06:21:01.621Z,57.32
2018-08-13T06:23:28.505Z,57.79
2018-08-13T06:25:55.006Z,58.54
2018-08-13T06:28:21.468Z,59.02
2018-08-13T06:30:48.545Z,59.51
2018-08-13T06:33:16.129Z,60.20
2018-08-13T06:35:43.299Z,60.66
2018-08-13T06:38:10.321Z,60.88
2018-08-13T06:40:36.765Z,61.37
2018-08-13T06:43:03.260Z,62.20
2018-08-13T06:45:30.048Z,62.43
2018-08-13T06:47:56.542Z,63.39
2018-08-13T06:50:23.554Z,64.61
2018-08-13T06:52:50.342Z,66.37
2018-08-13T06:55:16.806Z,68.38
2018-08-13T06:57:43.260Z,69.47
2018-08-13T07:00:11.019Z,70.39
2018-08-13T07:02:38.443Z,71.84
2018-08-13T07:05:06.068Z,71.19
2018-08-13T07:07:33.634Z,71.42
2018-08-13T07:10:00.142Z,72.04
2018-08-13T07:12:26.646Z,73.03
2018-08-13T07:14:53.411Z,73.16
2018-08-13T07:17:21.001Z,72.31
2018-08-13T07:19:47.492Z,72.96
2018-08-13T07:22:14.321Z,72.97
2018-08-13T07:24:40.820Z,72.95
2018-08-13T07:27:07.326Z,73.08
2018-08-13T07:29:34.116Z,72.35
2018-08-13T07:32:01.129Z,71.75
2018-08-13T07:34:28.271Z,72.25
2018-08-13T07:36:55.964Z,72.70
2018-08-13T07:39:22.509Z,70.80
2018-08-13T07:41:49.682Z,70.92
2018-08-13T07:44:16.473Z,70.42
2018-08-13T07:46:43.029Z,71.43
2018-08-13T07:49:09.498Z,70.62
2018-08-13T07:51:37.190Z,69.90
2018-08-13T07:54:03.685Z,69.65
2018-08-13T07:56:30.585Z,69.72
2018-08-13T07:58:57.358Z,69.94
2018-08-13T08:01:23.812Z,70.59
2018-08-13T08:03:50.327Z,70.63
2018-08-13T08:06:17.245Z,70.95
2018-08-13T08:08:44.356Z,69.49
2018-08-13T08:11:10.811Z,69.18
2018-08-13T08:13:38.479Z,69.37
2018-08-13T08:16:04.985Z,69.12
2018-08-13T08:18:31.469Z,68.45
2018-08-13T08:20:59.187Z,68.63
2018-08-13T08:23:25.669Z,68.90
2018-08-13T08:25:52.885Z,68.14
2018-08-13T08:28:19.701Z,67.94
2018-08-13T08:30:46.155Z,67.94
2018-08-13T08:33:13.293Z,66.41
2018-08-13T08:35:41.926Z,66.34
2018-08-13T08:38:08.392Z,66.07
2018-08-13T08:40:34.873Z,65.89
2018-08-13T08:43:01.678Z,65.48
2018-08-13T08:45:28.171Z,65.21
2018-08-13T08:47:54.641Z,66.43
2018-08-13T08:50:21.382Z,63.92
2018-08-13T08:52:47.862Z,64.37
2018-08-13T08:55:14.399Z,64.03
2018-08-13T08:57:41.165Z,63.62
2018-08-13T09:00:08.305Z,64.12
2018-08-13T09:02:34.803Z,65.63
2018-08-13T09:05:01.581Z,66.09
2018-08-13T09:07:28.390Z,65.10
2018-08-13T09:09:54.852Z,65.02
2018-08-13T09:12:22.231Z,64.85
2018-08-13T09:14:49.587Z,65.63
2018-08-13T09:17:16.079Z,64.99
2018-08-13T09:19:42.879Z,64.89
2018-08-13T09:22:09.434Z,65.16
2018-08-13T09:24:37.074Z,63.88
2018-08-13T09:27:04.614Z,63.71
2018-08-13T09:29:31.557Z,63.36
2018-08-13T09:32:02.136Z,63.14
2018-08-13T09:34:29.688Z,62.69
2018-08-13T09:36:56.159Z,62.69
2018-08-13T09:39:22.957Z,62.21
2018-08-13T09:41:49.448Z,62.59
2018-08-13T09:44:15.991Z,61.82
2018-08-13T09:46:43.919Z,61.63
2018-08-13T09:49:10.446Z,61.58
2018-08-13T09:51:37.146Z,61.83
2018-08-13T09:54:05.095Z,61.93
2018-08-13T09:56:32.546Z,60.10
2018-08-13T09:58:59.492Z,59.89
2018-08-13T10:01:26.452Z,60.51
2018-08-13T10:03:52.983Z,58.95
2018-08-13T10:06:19.532Z,57.33
2018-08-13T10:08:46.321Z,56.91
2018-08-13T10:11:16.450Z,58.10
2018-08-13T10:13:44.155Z,57.47
2018-08-13T10:16:11.801Z,58.07
2018-08-13T10:18:39.571Z,57.43
2018-08-13T10:21:06.057Z,57.55
2018-08-13T10:23:33.464Z,57.29
2018-08-13T10:25:59.947Z,56.77
2018-08-13T10:28:26.444Z,55.53
2018-08-13T10:30:53.479Z,55.36
2018-08-13T10:33:20.113Z,54.52
2018-08-13T10:35:47.198Z,55.96
2018-08-13T10:38:14.302Z,55.84
2018-08-13T10:40:40.788Z,56.34
2018-08-13T10:43:07.256Z,57.23
2018-08-13T10:45:34.024Z,57.68
2018-08-13T10:48:00.654Z,58.18
2018-08-13T10:50:28.186Z,58.28
2018-08-13T10:52:54.970Z,58.53
2018-08-13T10:55:21.488Z,58.09
2018-08-13T10:57:47.960Z,58.76
2018-08-13T11:00:15.697Z,58.98
2018-08-13T11:02:42.229Z,59.19
2018-08-13T11:05:08.720Z,59.36
2018-08-13T11:07:35.539Z,59.59
2018-08-13T11:10:02.058Z,61.53
2018-08-13T11:12:28.540Z,63.07
2018-08-13T11:14:55.321Z,63.49
2018-08-13T11:17:22.432Z,64.84
2018-08-13T11:19:48.884Z,66.76
2018-08-13T11:22:16.593Z,68.61
2018-08-13T11:24:44.047Z,69.75
2018-08-13T11:27:11.495Z,69.48
2018-08-13T11:29:39.304Z,68.92
2018-08-13T11:32:05.835Z,69.41
2018-08-13T11:34:32.310Z,69.59
2018-08-13T11:36:59.112Z,69.93
2018-08-13T11:39:25.605Z,70.37
2018-08-13T11:41:54.893Z,69.64
2018-08-13T11:44:22.322Z,69.67
2018-08-13T11:46:48.826Z,71.51
2018-08-13T11:49:15.328Z,71.54
2018-08-13T11:51:42.312Z,71.31
2018-08-13T11:54:09.352Z,72.14
2018-08-13T11:56:35.828Z,72.44
2018-08-13T11:59:02.635Z,74.46
2018-08-13T12:01:29.098Z,74.07
2018-08-13T12:03:55.581Z,73.13
2018-08-13T12:06:22.507Z,73.87
2018-08-13T12:08:53.519Z,73.96
2018-08-13T12:11:19.984Z,73.04
2018-08-13T12:13:46.781Z,73.94
2018-08-13T12:16:14.182Z,74.30
2018-08-13T12:18:40.702Z,74.22
2018-08-13T12:21:07.488Z,73.84
2018-08-13T12:23:34.006Z,74.26
2018-08-13T12:26:00.511Z,74.98
2018-08-13T12:28:29.218Z,76.70
2018-08-13T12:30:56.377Z,78.24
2018-08-13T12:33:23.875Z,77.97
2018-08-13T12:35:50.681Z,77.82
2018-08-13T12:38:17.401Z,76.23
2018-08-13T12:40:45.075Z,73.28
2018-08-13T12:43:12.807Z,71.99
2018-08-13T12:45:39.294Z,72.92
2018-08-13T12:48:05.777Z,74.01
2018-08-13T12:50:33.578Z,74.31
2018-08-13T12:53:02.558Z,74.26
2018-08-13T12:55:29.049Z,73.23
2018-08-13T12:57:56.489Z,72.82
2018-08-13T13:00:24.147Z,74.26
2018-08-13T13:02:50.633Z,73.79
2018-08-13T13:05:17.291Z,73.71
2018-08-13T13:07:47.401Z,73.36
2018-08-13T13:10:14.181Z,71.48
2018-08-13T13:12:40.680Z,70.28
2018-08-13T13:15:07.166Z,71.74
2018-08-13T13:17:34.738Z,71.27
2018-08-13T13:20:01.232Z,71.43
2018-08-13T13:22:27.725Z,71.50
2018-08-13T13:24:54.489Z,72.34
2018-08-13T13:27:22.641Z,72.80
2018-08-13T13:29:49.133Z,73.64
2018-08-13T13:32:16.575Z,74.58
2018-08-13T13:34:44.612Z,75.08
2018-08-13T13:37:11.138Z,75.13
2018-08-13T13:39:37.917Z,75.22
2018-08-13T13:42:04.410Z,76.29
2018-08-13T13:44:31.742Z,77.71
2018-08-13T13:46:58.563Z,77.34
2018-08-13T13:49:26.664Z,78.72
2018-08-13T13:51:53.915Z,78.64
2018-08-13T13:54:20.738Z,79.16
2018-08-13T13:56:47.232Z,80.33
2018-08-13T13:59:15.367Z,80.88
2018-08-13T14:01:44.140Z,79.69
2018-08-13T14:04:13.407Z,79.21
2018-08-13T14:06:39.877Z,78.08
2018-08-13T14:09:06.617Z,77.13
2018-08-13T14:11:33.127Z,74.60
2018-08-13T14:14:00.366Z,71.97
2018-08-13T14:16:28.123Z,72.62
2018-08-13T14:18:54.589Z,73.42
2018-08-13T14:21:21.741Z,73.80
2018-08-13T14:23:48.497Z,75.00
2018-08-13T14:26:16.011Z,74.74
2018-08-13T14:28:42.510Z,73.79
2018-08-13T14:31:09.289Z,74.26
2018-08-13T14:33:35.783Z,73.59
2018-08-13T14:36:02.278Z,73.74
2018-08-13T14:38:29.071Z,73.09
2018-08-13T14:40:55.558Z,74.40
2018-08-13T14:43:22.078Z,73.96
2018-08-13T14:45:48.854Z,74.74
2018-08-13T14:48:15.309Z,73.54
2018-08-13T14:50:42.385Z,72.90
2018-08-13T14:53:09.207Z,72.82
2018-08-13T14:55:36.414Z,73.77
2018-08-13T14:58:04.095Z,72.47
2018-08-13T15:00:30.914Z,73.91
2018-08-13T15:02:57.506Z,72.96
2018-08-13T15:05:24.984Z,72.63
2018-08-13T15:07:51.739Z,73.35
2018-08-13T15:10:18.242Z,73.26
2018-08-13T15:12:44.772Z,74.51
2018-08-13T15:15:12.534Z,75.71
2018-08-13T15:17:39.006Z,77.72
2018-08-13T15:20:05.513Z,80.13
2018-08-13T15:22:32.299Z,81.10
2018-08-13T15:24:59.398Z,82.56
2018-08-13T15:27:26.856Z,81.82
2018-08-13T15:29:53.521Z,85.30
2018-08-13T15:32:19.986Z,87.36
2018-08-13T15:34:46.461Z,88.61
2018-08-13T15:37:13.405Z,90.08
2018-08-13T15:39:40.132Z,91.55
2018-08-13T15:42:07.372Z,92.60
2018-08-13T15:44:34.211Z,92.13
2018-08-13T15:47:01.944Z,91.86
2018-08-13T15:49:28.491Z,90.92
2018-08-13T15:51:55.304Z,88.85
2018-08-13T15:54:21.917Z,87.41
2018-08-13T15:56:49.451Z,85.52
2018-08-13T15:59:16.242Z,81.53
2018-08-13T16:01:42.868Z,77.06
2018-08-13T16:04:11.934Z,76.45
2018-08-13T16:06:38.733Z,77.21
2018-08-13T16:09:05.207Z,72.47
2018-08-13T16:11:31.750Z,72.49
2018-08-13T16:13:59.229Z,70.54
2018-08-13T16:18:58.510Z,71.28
2018-08-13T16:21:25.302Z,74.16
2018-08-13T16:23:52.527Z,69.63
2018-08-13T16:26:18.985Z,71.16
2018-08-13T16:28:45.758Z,76.68
2018-08-13T16:31:12.273Z,80.41
2018-08-13T16:33:38.781Z,82.19
2018-08-13T16:36:05.310Z,83.18
2018-08-13T16:38:31.829Z,83.31
2018-08-13T16:40:58.621Z,83.03
2018-08-13T16:43:25.392Z,82.56
2018-08-13T16:45:52.629Z,80.62
2018-08-13T16:48:19.441Z,74.81
2018-08-13T16:50:45.922Z,69.13
2018-08-13T16:53:12.416Z,72.49
2018-08-13T16:55:39.540Z,77.21
2018-08-13T16:58:06.985Z,77.98
2018-08-13T17:00:34.493Z,78.75
2018-08-13T17:03:02.216Z,78.28
2018-08-13T17:05:28.996Z,77.59
2018-08-13T17:07:55.492Z,77.04
2018-08-13T17:10:22.328Z,74.97
2018-08-13T17:15:22.818Z,72.95
2018-08-13T17:17:53.473Z,72.50
2018-08-13T17:20:27.326Z,69.08
2018-08-13T17:22:55.350Z,65.54
2018-08-13T17:25:22.144Z,65.73
2018-08-13T17:27:48.703Z,63.83
2018-08-13T17:30:15.379Z,66.18
2018-08-13T17:32:42.171Z,65.83
2018-08-13T17:35:10.313Z,63.02
2018-08-13T17:37:36.811Z,63.51
2018-08-13T17:40:04.706Z,64.43
2018-08-13T17:42:32.801Z,63.62
2018-08-13T17:45:00.318Z,63.30
2018-08-13T17:47:27.266Z,62.63
2018-08-13T17:49:54.097Z,64.13
2018-08-13T17:52:20.557Z,63.30
2018-08-13T17:54:47.341Z,62.59
2018-08-13T17:57:15.498Z,62.96
2018-08-13T17:59:45.187Z,62.61
2018-08-13T18:02:12.783Z,62.72
2018-08-13T18:04:39.663Z,64.46
2018-08-13T18:07:06.421Z,70.23
2018-08-13T18:09:34.650Z,74.21
2018-08-13T18:12:01.225Z,76.24
2018-08-13T18:14:27.722Z,78.73
2018-08-13T18:16:55.746Z,78.11
2018-08-13T18:19:22.341Z,79.03
2018-08-13T18:21:49.560Z,79.15
2018-08-13T18:24:18.233Z,80.14
2018-08-13T18:26:44.697Z,80.30
2018-08-13T18:29:15.822Z,80.75
2018-08-13T18:31:43.440Z,80.82
2018-08-13T18:34:10.068Z,82.10
2018-08-13T18:36:36.565Z,82.55
2018-08-13T18:39:03.540Z,82.88
2018-08-13T18:41:30.559Z,83.22
2018-08-13T18:43:57.062Z,83.59
2018-08-13T18:46:23.854Z,84.77
2018-08-13T18:48:50.304Z,85.06
2018-08-13T18:51:16.812Z,85.43
2018-08-13T18:53:44.322Z,85.77
2018-08-13T18:56:10.809Z,85.75
2018-08-13T18:58:40.968Z,85.82
2018-08-13T19:01:07.775Z,85.58
2018-08-13T19:03:34.257Z,86.03
2018-08-13T19:06:01.398Z,85.59
2018-08-13T19:08:28.204Z,84.51
2018-08-13T19:10:54.703Z,84.35
2018-08-13T19:13:21.211Z,83.81
2018-08-13T19:15:47.993Z,83.60
2018-08-13T19:18:14.468Z,83.61
2018-08-13T19:20:43.318Z,84.05
2018-08-13T19:23:10.077Z,83.44
2018-08-13T19:25:36.584Z,83.60
2018-08-13T19:28:05.395Z,84.10
2018-08-13T19:30:32.265Z,83.99
2018-08-13T19:32:59.955Z,85.17
2018-08-13T19:35:27.097Z,84.67
2018-08-13T19:37:53.917Z,85.35
2018-08-13T19:40:20.414Z,85.63
2018-08-13T19:45:21.247Z,85.92
2018-08-13T19:47:48.413Z,85.72
2018-08-13T19:50:16.007Z,86.37
2018-08-13T19:52:43.360Z,86.04
2018-08-13T19:55:12.481Z,86.44
2018-08-13T19:57:39.292Z,86.03
2018-08-13T20:00:07.351Z,86.42
2018-08-13T20:02:33.846Z,86.57
2018-08-13T20:05:04.559Z,85.97
2018-08-13T20:07:31.073Z,85.90
2018-08-13T20:09:57.531Z,85.88
2018-08-13T20:12:25.485Z,85.81
2018-08-13T20:14:52.002Z,85.59
2018-08-13T20:17:18.485Z,85.61
2018-08-13T20:19:48.492Z,85.67
2018-08-13T20:22:19.662Z,85.88
2018-08-13T20:24:46.212Z,85.65
2018-08-13T20:27:15.836Z,84.92
2018-08-13T20:29:44.581Z,85.47
2018-08-13T20:32:11.283Z,85.82
2018-08-13T20:34:39.118Z,86.42
2018-08-13T20:37:05.642Z,86.04
2018-08-13T20:39:32.584Z,86.22
2018-08-13T20:41:59.644Z,85.96
2018-08-13T20:44:27.659Z,86.75
2018-08-13T20:46:56.257Z,85.96
2018-08-13T20:49:24.990Z,85.87
2018-08-13T20:51:51.441Z,86.12
2018-08-13T20:54:17.990Z,85.93
2018-08-13T20:56:46.701Z,85.83
2018-08-13T20:59:15.366Z,86.74
2018-08-13T21:01:41.918Z,86.75
2018-08-13T21:04:08.701Z,86.38
2018-08-13T21:06:37.773Z,86.22
2018-08-13T21:09:04.306Z,86.21
2018-08-13T21:11:31.874Z,85.72
2018-08-13T21:13:58.369Z,85.81
2018-08-13T21:16:24.846Z,85.92
2018-08-13T21:18:51.643Z,86.30
2018-08-13T21:21:19.437Z,85.38
2018-08-13T21:23:45.934Z,85.60
2018-08-13T21:26:13.382Z,85.73
2018-08-13T21:28:41.697Z,85.64
2018-08-13T21:31:08.179Z,85.49
2018-08-13T21:33:34.959Z,84.87
2018-08-13T21:36:02.663Z,85.37
2018-08-13T21:38:30.096Z,84.85
2018-08-13T21:40:57.820Z,85.02
2018-08-13T21:43:24.380Z,84.50
2018-08-13T21:45:51.752Z,84.91
2018-08-13T21:48:18.678Z,85.08
2018-08-13T21:50:45.195Z,85.76
2018-08-13T21:53:11.673Z,86.36
2018-08-13T21:55:39.540Z,86.20
2018-08-13T21:58:06.562Z,86.70
2018-08-13T22:00:36.301Z,86.53
2018-08-13T22:03:09.318Z,86.84
2018-08-13T22:05:36.043Z,86.91
2018-08-13T22:08:03.469Z,87.11
2018-08-13T22:10:31.636Z,87.60
2018-08-13T22:12:59.013Z,87.65
2018-08-13T22:17:57.389Z,87.80
2018-08-13T22:20:23.854Z,88.47
2018-08-13T22:22:51.460Z,88.48
2018-08-13T22:25:18.802Z,88.46
2018-08-13T22:27:45.350Z,88.37
2018-08-13T22:30:12.216Z,89.09
2018-08-13T22:32:38.811Z,88.25
2018-08-13T22:35:05.280Z,88.04
2018-08-13T22:37:33.733Z,88.37
2018-08-13T22:40:00.279Z,87.89
2018-08-13T22:42:27.789Z,87.80
2018-08-13T22:44:54.687Z,88.20
2018-08-13T22:47:21.285Z,87.74
2018-08-13T22:49:48.714Z,87.82
2018-08-13T22:52:15.572Z,87.46
2018-08-13T22:54:42.505Z,87.57
2018-08-13T22:57:09.116Z,87.19
2018-08-13T22:59:36.403Z,87.26
2018-08-13T23:02:03.897Z,86.88
2018-08-13T23:04:30.854Z,86.83
2018-08-13T23:06:57.353Z,86.68
2018-08-13T23:09:23.834Z,86.47
2018-08-13T23:11:50.388Z,86.21
2018-08-13T23:14:17.191Z,86.33
2018-08-13T23:16:43.692Z,86.52
2018-08-13T23:19:10.146Z,86.80
2018-08-13T23:21:37.125Z,87.02
2018-08-13T23:24:03.614Z,86.74
2018-08-13T23:26:30.113Z,87.15
2018-08-13T23:28:56.605Z,86.88
2018-08-13T23:31:26.308Z,87.17
2018-08-13T23:33:53.450Z,86.96
2018-08-13T23:36:21.134Z,87.25
2018-08-13T23:38:49.680Z,87.19
2018-08-13T23:41:16.591Z,86.91
2018-08-13T23:43:43.098Z,87.10
2018-08-13T23:46:10.019Z,87.02
2018-08-13T23:48:36.481Z,87.21
2018-08-13T23:51:02.967Z,87.40
2018-08-13T23:53:29.902Z,87.00
2018-08-13T23:55:56.425Z,87.01
2018-08-13T23:58:22.889Z,87.59
